sensor_id;sensor_type;location;lat;lon;timestamp;temperature;humidity
74809;DHT22;63338;39.544;2.596;2023-05-07T00:00:17;22.60;59.90
74809;DHT22;63338;39.544;2.596;2023-05-07T00:02:45;22.60;60.00
74809;DHT22;63338;39.544;2.596;2023-05-07T00:05:14;22.60;60.50
74809;DHT22;63338;39.544;2.596;2023-05-07T00:07:40;22.50;60.00
74809;DHT22;63338;39.544;2.596;2023-05-07T00:10:07;22.50;59.30
74809;DHT22;63338;39.544;2.596;2023-05-07T00:12:33;22.50;58.80
74809;DHT22;63338;39.544;2.596;2023-05-07T00:15:01;22.50;57.80
74809;DHT22;63338;39.544;2.596;2023-05-07T00:17:27;22.50;57.50
74809;DHT22;63338;39.544;2.596;2023-05-07T00:19:53;22.40;57.70
74809;DHT22;63338;39.544;2.596;2023-05-07T00:22:19;22.40;57.20
74809;DHT22;63338;39.544;2.596;2023-05-07T00:24:45;22.30;57.30
74809;DHT22;63338;39.544;2.596;2023-05-07T00:27:12;22.40;57.80
74809;DHT22;63338;39.544;2.596;2023-05-07T00:29:39;22.50;57.00
74809;DHT22;63338;39.544;2.596;2023-05-07T00:32:05;22.40;56.20
74809;DHT22;63338;39.544;2.596;2023-05-07T00:34:31;22.40;56.30
74809;DHT22;63338;39.544;2.596;2023-05-07T00:36:57;22.50;56.60
74809;DHT22;63338;39.544;2.596;2023-05-07T00:39:23;22.50;56.20
74809;DHT22;63338;39.544;2.596;2023-05-07T00:41:49;22.50;55.80
74809;DHT22;63338;39.544;2.596;2023-05-07T00:44:17;22.50;55.10
74809;DHT22;63338;39.544;2.596;2023-05-07T00:46:44;22.50;55.40
74809;DHT22;63338;39.544;2.596;2023-05-07T00:49:16;22.40;55.30
74809;DHT22;63338;39.544;2.596;2023-05-07T00:51:42;22.40;55.50
74809;DHT22;63338;39.544;2.596;2023-05-07T00:54:09;22.40;54.70
74809;DHT22;63338;39.544;2.596;2023-05-07T00:56:39;22.50;54.80
74809;DHT22;63338;39.544;2.596;2023-05-07T00:59:06;22.40;54.80
74809;DHT22;63338;39.544;2.596;2023-05-07T01:01:32;22.30;55.10
74809;DHT22;63338;39.544;2.596;2023-05-07T01:03:58;22.30;54.70
74809;DHT22;63338;39.544;2.596;2023-05-07T01:06:25;22.40;54.70
74809;DHT22;63338;39.544;2.596;2023-05-07T01:08:54;22.40;54.00
74809;DHT22;63338;39.544;2.596;2023-05-07T01:11:23;22.30;54.20
74809;DHT22;63338;39.544;2.596;2023-05-07T01:13:49;22.30;54.20
74809;DHT22;63338;39.544;2.596;2023-05-07T01:16:16;22.30;53.80
74809;DHT22;63338;39.544;2.596;2023-05-07T01:18:48;22.20;53.40
74809;DHT22;63338;39.544;2.596;2023-05-07T01:21:15;22.20;54.70
74809;DHT22;63338;39.544;2.596;2023-05-07T01:23:42;22.30;53.90
74809;DHT22;63338;39.544;2.596;2023-05-07T01:26:09;22.20;52.10
74809;DHT22;63338;39.544;2.596;2023-05-07T01:28:35;22.10;51.70
74809;DHT22;63338;39.544;2.596;2023-05-07T01:31:03;22.20;51.50
74809;DHT22;63338;39.544;2.596;2023-05-07T01:33:33;22.20;51.90
74809;DHT22;63338;39.544;2.596;2023-05-07T01:35:59;22.00;53.00
74809;DHT22;63338;39.544;2.596;2023-05-07T01:38:28;22.00;53.50
74809;DHT22;63338;39.544;2.596;2023-05-07T01:40:56;22.10;53.30
74809;DHT22;63338;39.544;2.596;2023-05-07T01:43:22;22.10;53.30
74809;DHT22;63338;39.544;2.596;2023-05-07T01:45:48;22.10;53.50
74809;DHT22;63338;39.544;2.596;2023-05-07T01:48:15;22.10;53.00
74809;DHT22;63338;39.544;2.596;2023-05-07T01:50:44;22.10;52.60
74809;DHT22;63338;39.544;2.596;2023-05-07T01:53:10;22.00;52.60
74809;DHT22;63338;39.544;2.596;2023-05-07T01:55:36;22.10;52.60
74809;DHT22;63338;39.544;2.596;2023-05-07T01:58:03;22.00;53.40
74809;DHT22;63338;39.544;2.596;2023-05-07T02:00:30;22.00;54.20
74809;DHT22;63338;39.544;2.596;2023-05-07T02:02:57;22.00;54.20
74809;DHT22;63338;39.544;2.596;2023-05-07T02:05:23;22.00;54.00
74809;DHT22;63338;39.544;2.596;2023-05-07T02:07:49;21.90;54.00
74809;DHT22;63338;39.544;2.596;2023-05-07T02:10:15;21.90;53.80
74809;DHT22;63338;39.544;2.596;2023-05-07T02:12:44;21.90;54.40
74809;DHT22;63338;39.544;2.596;2023-05-07T02:15:10;21.80;55.80
74809;DHT22;63338;39.544;2.596;2023-05-07T02:17:58;21.90;55.70
74809;DHT22;63338;39.544;2.596;2023-05-07T02:20:25;21.80;56.40
74809;DHT22;63338;39.544;2.596;2023-05-07T02:22:51;21.70;55.30
74809;DHT22;63338;39.544;2.596;2023-05-07T02:25:17;21.70;58.80
74809;DHT22;63338;39.544;2.596;2023-05-07T02:27:43;21.60;59.90
74809;DHT22;63338;39.544;2.596;2023-05-07T02:30:10;21.70;60.30
74809;DHT22;63338;39.544;2.596;2023-05-07T02:32:36;21.70;61.60
74809;DHT22;63338;39.544;2.596;2023-05-07T02:35:02;21.70;61.80
74809;DHT22;63338;39.544;2.596;2023-05-07T02:37:29;21.60;61.70
74809;DHT22;63338;39.544;2.596;2023-05-07T02:39:55;21.60;62.20
74809;DHT22;63338;39.544;2.596;2023-05-07T02:42:21;21.60;60.90
74809;DHT22;63338;39.544;2.596;2023-05-07T02:44:50;21.50;60.20
74809;DHT22;63338;39.544;2.596;2023-05-07T02:47:16;21.50;60.50
74809;DHT22;63338;39.544;2.596;2023-05-07T02:49:42;21.50;61.00
74809;DHT22;63338;39.544;2.596;2023-05-07T02:52:08;21.40;61.10
74809;DHT22;63338;39.544;2.596;2023-05-07T02:54:34;21.40;61.30
74809;DHT22;63338;39.544;2.596;2023-05-07T02:57:00;21.30;61.70
74809;DHT22;63338;39.544;2.596;2023-05-07T02:59:29;21.30;61.70
74809;DHT22;63338;39.544;2.596;2023-05-07T03:01:55;21.30;62.20
74809;DHT22;63338;39.544;2.596;2023-05-07T03:04:21;21.20;62.60
74809;DHT22;63338;39.544;2.596;2023-05-07T03:06:47;21.10;62.80
74809;DHT22;63338;39.544;2.596;2023-05-07T03:09:16;21.10;62.80
74809;DHT22;63338;39.544;2.596;2023-05-07T03:11:42;21.20;63.30
74809;DHT22;63338;39.544;2.596;2023-05-07T03:14:08;21.00;63.60
74809;DHT22;63338;39.544;2.596;2023-05-07T03:16:35;21.00;63.20
74809;DHT22;63338;39.544;2.596;2023-05-07T03:19:01;21.00;63.40
74809;DHT22;63338;39.544;2.596;2023-05-07T03:21:27;21.00;63.50
74809;DHT22;63338;39.544;2.596;2023-05-07T03:23:53;20.90;63.20
74809;DHT22;63338;39.544;2.596;2023-05-07T03:26:19;20.80;64.60
74809;DHT22;63338;39.544;2.596;2023-05-07T03:28:46;20.90;64.70
74809;DHT22;63338;39.544;2.596;2023-05-07T03:31:12;20.90;64.40
74809;DHT22;63338;39.544;2.596;2023-05-07T03:33:52;20.80;64.60
74809;DHT22;63338;39.544;2.596;2023-05-07T03:36:19;20.80;64.50
74809;DHT22;63338;39.544;2.596;2023-05-07T03:38:45;20.80;64.50
74809;DHT22;63338;39.544;2.596;2023-05-07T03:41:12;20.80;64.40
74809;DHT22;63338;39.544;2.596;2023-05-07T03:43:38;20.70;64.70
74809;DHT22;63338;39.544;2.596;2023-05-07T03:46:08;20.70;65.20
74809;DHT22;63338;39.544;2.596;2023-05-07T03:48:34;20.70;65.70
74809;DHT22;63338;39.544;2.596;2023-05-07T03:51:00;20.70;65.60
74809;DHT22;63338;39.544;2.596;2023-05-07T03:53:26;20.60;65.70
74809;DHT22;63338;39.544;2.596;2023-05-07T03:55:52;20.70;66.20
74809;DHT22;63338;39.544;2.596;2023-05-07T03:58:20;20.70;66.10
74809;DHT22;63338;39.544;2.596;2023-05-07T04:00:49;20.70;66.10
74809;DHT22;63338;39.544;2.596;2023-05-07T04:03:15;20.70;66.10
74809;DHT22;63338;39.544;2.596;2023-05-07T04:05:41;20.70;66.20
74809;DHT22;63338;39.544;2.596;2023-05-07T04:08:07;20.70;66.10
74809;DHT22;63338;39.544;2.596;2023-05-07T04:10:33;20.80;65.90
74809;DHT22;63338;39.544;2.596;2023-05-07T04:12:59;20.70;66.20
74809;DHT22;63338;39.544;2.596;2023-05-07T04:15:25;20.70;66.40
74809;DHT22;63338;39.544;2.596;2023-05-07T04:17:51;20.70;66.30
74809;DHT22;63338;39.544;2.596;2023-05-07T04:20:20;20.70;67.30
74809;DHT22;63338;39.544;2.596;2023-05-07T04:22:46;20.60;68.00
74809;DHT22;63338;39.544;2.596;2023-05-07T04:25:12;20.70;69.50
74809;DHT22;63338;39.544;2.596;2023-05-07T04:27:38;20.70;69.70
74809;DHT22;63338;39.544;2.596;2023-05-07T04:30:04;20.60;69.40
74809;DHT22;63338;39.544;2.596;2023-05-07T04:32:30;20.60;69.60
74809;DHT22;63338;39.544;2.596;2023-05-07T04:34:57;20.60;70.10
74809;DHT22;63338;39.544;2.596;2023-05-07T04:37:25;20.60;69.90
74809;DHT22;63338;39.544;2.596;2023-05-07T04:39:52;20.60;69.80
74809;DHT22;63338;39.544;2.596;2023-05-07T04:42:18;20.60;69.30
74809;DHT22;63338;39.544;2.596;2023-05-07T04:44:45;20.60;68.90
74809;DHT22;63338;39.544;2.596;2023-05-07T04:47:11;20.60;68.20
74809;DHT22;63338;39.544;2.596;2023-05-07T04:49:40;20.50;67.90
74809;DHT22;63338;39.544;2.596;2023-05-07T04:52:06;20.50;67.50
74809;DHT22;63338;39.544;2.596;2023-05-07T04:54:32;20.40;67.30
74809;DHT22;63338;39.544;2.596;2023-05-07T04:56:58;20.40;67.50
74809;DHT22;63338;39.544;2.596;2023-05-07T04:59:26;20.30;67.60
74809;DHT22;63338;39.544;2.596;2023-05-07T05:01:52;20.30;67.80
74809;DHT22;63338;39.544;2.596;2023-05-07T05:04:18;20.20;68.10
74809;DHT22;63338;39.544;2.596;2023-05-07T05:06:46;20.20;68.10
74809;DHT22;63338;39.544;2.596;2023-05-07T05:09:11;20.20;68.20
74809;DHT22;63338;39.544;2.596;2023-05-07T05:11:38;20.20;68.10
74809;DHT22;63338;39.544;2.596;2023-05-07T05:14:04;20.20;68.50
74809;DHT22;63338;39.544;2.596;2023-05-07T05:16:31;20.10;68.80
74809;DHT22;63338;39.544;2.596;2023-05-07T05:18:57;20.10;69.40
74809;DHT22;63338;39.544;2.596;2023-05-07T05:21:23;20.10;69.60
74809;DHT22;63338;39.544;2.596;2023-05-07T05:23:49;20.00;70.70
74809;DHT22;63338;39.544;2.596;2023-05-07T05:26:15;20.10;71.20
74809;DHT22;63338;39.544;2.596;2023-05-07T05:28:42;20.20;71.90
74809;DHT22;63338;39.544;2.596;2023-05-07T05:31:08;20.30;72.50
74809;DHT22;63338;39.544;2.596;2023-05-07T05:33:34;20.30;72.50
74809;DHT22;63338;39.544;2.596;2023-05-07T05:36:00;20.30;72.40
74809;DHT22;63338;39.544;2.596;2023-05-07T05:38:29;20.40;72.50
74809;DHT22;63338;39.544;2.596;2023-05-07T05:40:55;20.40;72.50
74809;DHT22;63338;39.544;2.596;2023-05-07T05:43:21;20.50;72.50
74809;DHT22;63338;39.544;2.596;2023-05-07T05:45:47;20.60;72.30
74809;DHT22;63338;39.544;2.596;2023-05-07T05:48:13;20.60;72.00
74809;DHT22;63338;39.544;2.596;2023-05-07T05:50:41;20.70;71.80
74809;DHT22;63338;39.544;2.596;2023-05-07T05:53:07;20.70;71.40
74809;DHT22;63338;39.544;2.596;2023-05-07T05:55:34;20.70;71.20
74809;DHT22;63338;39.544;2.596;2023-05-07T05:58:00;20.90;71.40
74809;DHT22;63338;39.544;2.596;2023-05-07T06:00:27;20.80;71.40
74809;DHT22;63338;39.544;2.596;2023-05-07T06:02:54;20.90;70.50
74809;DHT22;63338;39.544;2.596;2023-05-07T06:05:20;21.00;70.60
74809;DHT22;63338;39.544;2.596;2023-05-07T06:07:46;21.10;70.80
74809;DHT22;63338;39.544;2.596;2023-05-07T06:10:16;21.20;71.00
74809;DHT22;63338;39.544;2.596;2023-05-07T06:12:42;21.20;71.10
74809;DHT22;63338;39.544;2.596;2023-05-07T06:15:11;21.30;71.20
74809;DHT22;63338;39.544;2.596;2023-05-07T06:17:37;21.40;71.20
74809;DHT22;63338;39.544;2.596;2023-05-07T06:20:03;21.40;71.30
74809;DHT22;63338;39.544;2.596;2023-05-07T06:22:29;21.50;71.60
74809;DHT22;63338;39.544;2.596;2023-05-07T06:24:55;21.50;71.10
74809;DHT22;63338;39.544;2.596;2023-05-07T06:27:21;21.50;71.10
74809;DHT22;63338;39.544;2.596;2023-05-07T06:29:54;21.60;71.20
74809;DHT22;63338;39.544;2.596;2023-05-07T06:32:20;21.70;71.20
74809;DHT22;63338;39.544;2.596;2023-05-07T06:34:46;21.80;71.30
74809;DHT22;63338;39.544;2.596;2023-05-07T06:37:12;21.80;71.20
74809;DHT22;63338;39.544;2.596;2023-05-07T06:39:38;21.90;71.00
74809;DHT22;63338;39.544;2.596;2023-05-07T06:42:05;22.00;70.60
74809;DHT22;63338;39.544;2.596;2023-05-07T06:44:31;22.10;70.40
74809;DHT22;63338;39.544;2.596;2023-05-07T06:46:57;22.00;70.30
74809;DHT22;63338;39.544;2.596;2023-05-07T06:49:23;22.10;70.80
74809;DHT22;63338;39.544;2.596;2023-05-07T06:51:52;22.20;71.80
74809;DHT22;63338;39.544;2.596;2023-05-07T06:54:18;22.10;71.20
74809;DHT22;63338;39.544;2.596;2023-05-07T06:56:46;22.20;71.20
74809;DHT22;63338;39.544;2.596;2023-05-07T06:59:12;22.20;70.90
74809;DHT22;63338;39.544;2.596;2023-05-07T07:01:38;22.30;71.60
74809;DHT22;63338;39.544;2.596;2023-05-07T07:04:04;22.20;71.80
74809;DHT22;63338;39.544;2.596;2023-05-07T07:06:30;22.30;71.40
74809;DHT22;63338;39.544;2.596;2023-05-07T07:08:58;22.40;71.60
74809;DHT22;63338;39.544;2.596;2023-05-07T07:11:24;22.40;70.30
74809;DHT22;63338;39.544;2.596;2023-05-07T07:13:50;22.40;70.30
74809;DHT22;63338;39.544;2.596;2023-05-07T07:16:16;22.50;70.60
74809;DHT22;63338;39.544;2.596;2023-05-07T07:18:42;22.40;70.20
74809;DHT22;63338;39.544;2.596;2023-05-07T07:21:08;22.40;69.30
74809;DHT22;63338;39.544;2.596;2023-05-07T07:23:36;22.50;68.60
74809;DHT22;63338;39.544;2.596;2023-05-07T07:26:02;22.40;68.30
74809;DHT22;63338;39.544;2.596;2023-05-07T07:28:31;22.50;68.30
74809;DHT22;63338;39.544;2.596;2023-05-07T07:30:57;22.60;67.80
74809;DHT22;63338;39.544;2.596;2023-05-07T07:33:23;22.50;67.70
74809;DHT22;63338;39.544;2.596;2023-05-07T07:35:49;22.50;67.70
74809;DHT22;63338;39.544;2.596;2023-05-07T07:38:16;22.50;68.20
74809;DHT22;63338;39.544;2.596;2023-05-07T07:40:42;22.40;70.30
74809;DHT22;63338;39.544;2.596;2023-05-07T07:43:09;22.40;71.00
74809;DHT22;63338;39.544;2.596;2023-05-07T07:45:35;22.40;71.70
74809;DHT22;63338;39.544;2.596;2023-05-07T07:48:01;22.50;72.00
74809;DHT22;63338;39.544;2.596;2023-05-07T07:50:27;22.40;72.60
74809;DHT22;63338;39.544;2.596;2023-05-07T07:52:56;22.40;72.20
74809;DHT22;63338;39.544;2.596;2023-05-07T07:55:23;22.40;72.50
74809;DHT22;63338;39.544;2.596;2023-05-07T07:57:49;22.30;71.50
74809;DHT22;63338;39.544;2.596;2023-05-07T08:00:16;22.40;71.20
74809;DHT22;63338;39.544;2.596;2023-05-07T08:02:42;22.50;70.90
74809;DHT22;63338;39.544;2.596;2023-05-07T08:05:08;22.40;71.00
74809;DHT22;63338;39.544;2.596;2023-05-07T08:07:37;22.50;70.90
74809;DHT22;63338;39.544;2.596;2023-05-07T08:10:03;22.60;71.30
74809;DHT22;63338;39.544;2.596;2023-05-07T08:12:29;22.70;70.50
74809;DHT22;63338;39.544;2.596;2023-05-07T08:14:55;22.80;70.80
74809;DHT22;63338;39.544;2.596;2023-05-07T08:17:21;22.70;70.40
74809;DHT22;63338;39.544;2.596;2023-05-07T08:19:48;22.90;70.00
74809;DHT22;63338;39.544;2.596;2023-05-07T08:22:14;22.90;68.60
74809;DHT22;63338;39.544;2.596;2023-05-07T08:24:40;23.00;69.10
74809;DHT22;63338;39.544;2.596;2023-05-07T08:27:06;23.10;67.70
74809;DHT22;63338;39.544;2.596;2023-05-07T08:29:32;23.20;67.80
74809;DHT22;63338;39.544;2.596;2023-05-07T08:31:58;23.30;67.60
74809;DHT22;63338;39.544;2.596;2023-05-07T08:34:24;23.40;67.60
74809;DHT22;63338;39.544;2.596;2023-05-07T08:36:51;23.70;65.40
74809;DHT22;63338;39.544;2.596;2023-05-07T08:39:17;23.80;64.10
74809;DHT22;63338;39.544;2.596;2023-05-07T08:41:47;23.90;65.10
74809;DHT22;63338;39.544;2.596;2023-05-07T08:44:14;24.00;64.50
74809;DHT22;63338;39.544;2.596;2023-05-07T08:46:41;24.20;63.50
74809;DHT22;63338;39.544;2.596;2023-05-07T08:49:09;24.10;60.90
74809;DHT22;63338;39.544;2.596;2023-05-07T08:51:36;24.00;61.20
74809;DHT22;63338;39.544;2.596;2023-05-07T08:54:02;23.90;61.40
74809;DHT22;63338;39.544;2.596;2023-05-07T08:56:28;23.90;60.60
74809;DHT22;63338;39.544;2.596;2023-05-07T08:58:54;23.80;59.60
74809;DHT22;63338;39.544;2.596;2023-05-07T09:01:24;23.70;59.10
74809;DHT22;63338;39.544;2.596;2023-05-07T09:03:51;23.70;59.30
74809;DHT22;63338;39.544;2.596;2023-05-07T09:06:18;23.80;58.70
74809;DHT22;63338;39.544;2.596;2023-05-07T09:08:54;23.70;58.00
74809;DHT22;63338;39.544;2.596;2023-05-07T09:11:24;23.80;59.20
74809;DHT22;63338;39.544;2.596;2023-05-07T09:13:54;23.70;60.60
74809;DHT22;63338;39.544;2.596;2023-05-07T09:16:22;23.90;60.50
74809;DHT22;63338;39.544;2.596;2023-05-07T09:18:51;23.90;60.20
74809;DHT22;63338;39.544;2.596;2023-05-07T09:21:21;24.00;60.80
74809;DHT22;63338;39.544;2.596;2023-05-07T09:23:52;24.10;61.20
74809;DHT22;63338;39.544;2.596;2023-05-07T09:26:20;24.30;61.30
74809;DHT22;63338;39.544;2.596;2023-05-07T09:28:47;24.60;60.50
74809;DHT22;63338;39.544;2.596;2023-05-07T09:31:16;24.70;59.20
74809;DHT22;63338;39.544;2.596;2023-05-07T09:33:42;25.00;59.00
74809;DHT22;63338;39.544;2.596;2023-05-07T09:36:09;25.20;60.30
74809;DHT22;63338;39.544;2.596;2023-05-07T09:38:37;25.30;59.10
74809;DHT22;63338;39.544;2.596;2023-05-07T09:41:11;25.80;59.30
74809;DHT22;63338;39.544;2.596;2023-05-07T09:43:39;26.60;55.70
74809;DHT22;63338;39.544;2.596;2023-05-07T09:46:15;27.50;54.60
74809;DHT22;63338;39.544;2.596;2023-05-07T09:48:45;28.20;52.90
74809;DHT22;63338;39.544;2.596;2023-05-07T09:51:28;28.90;50.20
74809;DHT22;63338;39.544;2.596;2023-05-07T09:53:56;29.20;48.60
74809;DHT22;63338;39.544;2.596;2023-05-07T09:56:24;29.50;48.50
74809;DHT22;63338;39.544;2.596;2023-05-07T09:58:53;29.80;47.60
74809;DHT22;63338;39.544;2.596;2023-05-07T10:01:19;30.30;47.20
74809;DHT22;63338;39.544;2.596;2023-05-07T10:03:49;30.80;46.00
74809;DHT22;63338;39.544;2.596;2023-05-07T10:06:15;31.30;46.20
74809;DHT22;63338;39.544;2.596;2023-05-07T10:08:43;31.70;45.40
74809;DHT22;63338;39.544;2.596;2023-05-07T10:11:10;32.20;43.70
74809;DHT22;63338;39.544;2.596;2023-05-07T10:13:36;32.60;43.90
74809;DHT22;63338;39.544;2.596;2023-05-07T10:16:06;32.90;42.30
74809;DHT22;63338;39.544;2.596;2023-05-07T10:18:35;33.20;42.80
74809;DHT22;63338;39.544;2.596;2023-05-07T10:21:19;33.50;42.30
74809;DHT22;63338;39.544;2.596;2023-05-07T10:23:49;33.60;42.30
74809;DHT22;63338;39.544;2.596;2023-05-07T10:26:15;33.80;41.70
74809;DHT22;63338;39.544;2.596;2023-05-07T10:28:45;33.90;42.50
74809;DHT22;63338;39.544;2.596;2023-05-07T10:33:49;33.80;41.10
74809;DHT22;63338;39.544;2.596;2023-05-07T10:36:20;33.60;40.30
74809;DHT22;63338;39.544;2.596;2023-05-07T10:38:49;33.50;41.00
74809;DHT22;63338;39.544;2.596;2023-05-07T10:41:16;33.30;40.30
74809;DHT22;63338;39.544;2.596;2023-05-07T10:43:45;33.00;41.00
74809;DHT22;63338;39.544;2.596;2023-05-07T10:46:18;32.40;40.20
74809;DHT22;63338;39.544;2.596;2023-05-07T10:51:30;32.00;41.00
74809;DHT22;63338;39.544;2.596;2023-05-07T10:56:41;31.50;41.10
74809;DHT22;63338;39.544;2.596;2023-05-07T11:02:04;31.70;40.70
74809;DHT22;63338;39.544;2.596;2023-05-07T11:04:34;31.80;39.20
74809;DHT22;63338;39.544;2.596;2023-05-07T11:09:54;31.70;38.80
74809;DHT22;63338;39.544;2.596;2023-05-07T11:15:07;31.80;39.20
74809;DHT22;63338;39.544;2.596;2023-05-07T11:17:34;31.70;40.60
74809;DHT22;63338;39.544;2.596;2023-05-07T11:20:01;31.30;41.10
74809;DHT22;63338;39.544;2.596;2023-05-07T11:25:02;30.50;40.50
74809;DHT22;63338;39.544;2.596;2023-05-07T11:27:29;29.90;41.00
74809;DHT22;63338;39.544;2.596;2023-05-07T11:29:56;29.60;41.70
74809;DHT22;63338;39.544;2.596;2023-05-07T11:32:25;29.30;42.40
74809;DHT22;63338;39.544;2.596;2023-05-07T11:34:53;29.10;43.00
74809;DHT22;63338;39.544;2.596;2023-05-07T11:37:19;28.70;43.10
74809;DHT22;63338;39.544;2.596;2023-05-07T11:39:46;28.50;43.40
74809;DHT22;63338;39.544;2.596;2023-05-07T11:42:31;28.30;44.10
74809;DHT22;63338;39.544;2.596;2023-05-07T11:44:58;28.10;44.00
74809;DHT22;63338;39.544;2.596;2023-05-07T11:47:24;27.80;44.90
74809;DHT22;63338;39.544;2.596;2023-05-07T11:49:54;27.60;44.90
74809;DHT22;63338;39.544;2.596;2023-05-07T11:52:24;27.30;45.60
74809;DHT22;63338;39.544;2.596;2023-05-07T11:54:55;27.10;45.90
74809;DHT22;63338;39.544;2.596;2023-05-07T11:57:25;26.70;47.50
74809;DHT22;63338;39.544;2.596;2023-05-07T11:59:59;26.50;47.90
74809;DHT22;63338;39.544;2.596;2023-05-07T12:02:26;26.30;48.40
74809;DHT22;63338;39.544;2.596;2023-05-07T12:04:54;26.00;47.80
74809;DHT22;63338;39.544;2.596;2023-05-07T12:07:20;25.80;48.00
74809;DHT22;63338;39.544;2.596;2023-05-07T12:09:47;25.70;48.70
74809;DHT22;63338;39.544;2.596;2023-05-07T12:12:14;25.40;49.40
74809;DHT22;63338;39.544;2.596;2023-05-07T12:14:42;25.30;50.30
74809;DHT22;63338;39.544;2.596;2023-05-07T12:17:09;25.00;50.60
74809;DHT22;63338;39.544;2.596;2023-05-07T12:19:36;24.90;52.60
74809;DHT22;63338;39.544;2.596;2023-05-07T12:22:07;24.80;54.60
74809;DHT22;63338;39.544;2.596;2023-05-07T12:24:47;24.70;55.60
74809;DHT22;63338;39.544;2.596;2023-05-07T12:27:14;24.70;57.40
74809;DHT22;63338;39.544;2.596;2023-05-07T12:29:48;24.60;58.00
74809;DHT22;63338;39.544;2.596;2023-05-07T12:32:18;24.40;59.00
74809;DHT22;63338;39.544;2.596;2023-05-07T12:34:45;24.30;58.40
74809;DHT22;63338;39.544;2.596;2023-05-07T12:37:14;24.20;58.00
74809;DHT22;63338;39.544;2.596;2023-05-07T12:40:09;24.10;57.90
74809;DHT22;63338;39.544;2.596;2023-05-07T12:42:36;24.10;57.90
74809;DHT22;63338;39.544;2.596;2023-05-07T12:45:15;24.20;57.00
74809;DHT22;63338;39.544;2.596;2023-05-07T12:48:03;24.50;56.40
74809;DHT22;63338;39.544;2.596;2023-05-07T12:50:57;24.60;55.80
74809;DHT22;63338;39.544;2.596;2023-05-07T12:53:27;24.90;55.10
74809;DHT22;63338;39.544;2.596;2023-05-07T12:55:55;25.10;54.60
74809;DHT22;63338;39.544;2.596;2023-05-07T12:58:28;25.30;53.10
74809;DHT22;63338;39.544;2.596;2023-05-07T13:00:55;25.60;52.60
74809;DHT22;63338;39.544;2.596;2023-05-07T13:03:34;25.90;51.70
74809;DHT22;63338;39.544;2.596;2023-05-07T13:06:19;26.20;50.70
74809;DHT22;63338;39.544;2.596;2023-05-07T13:08:45;26.50;49.10
74809;DHT22;63338;39.544;2.596;2023-05-07T13:11:14;26.80;48.60
74809;DHT22;63338;39.544;2.596;2023-05-07T13:13:44;27.10;48.00
74809;DHT22;63338;39.544;2.596;2023-05-07T13:16:11;27.20;47.40
74809;DHT22;63338;39.544;2.596;2023-05-07T13:18:41;27.20;47.10
74809;DHT22;63338;39.544;2.596;2023-05-07T13:21:10;27.10;47.30
74809;DHT22;63338;39.544;2.596;2023-05-07T13:23:38;27.00;47.70
74809;DHT22;63338;39.544;2.596;2023-05-07T13:26:04;27.00;47.50
74809;DHT22;63338;39.544;2.596;2023-05-07T13:28:30;27.00;51.70
74809;DHT22;63338;39.544;2.596;2023-05-07T13:30:57;26.90;51.10
74809;DHT22;63338;39.544;2.596;2023-05-07T13:33:23;26.90;51.00
74809;DHT22;63338;39.544;2.596;2023-05-07T13:35:49;26.80;50.60
74809;DHT22;63338;39.544;2.596;2023-05-07T13:38:24;26.70;51.80
74809;DHT22;63338;39.544;2.596;2023-05-07T13:40:50;26.60;51.80
74809;DHT22;63338;39.544;2.596;2023-05-07T13:43:16;26.70;51.40
74809;DHT22;63338;39.544;2.596;2023-05-07T13:45:46;26.60;51.20
74809;DHT22;63338;39.544;2.596;2023-05-07T13:48:12;26.60;51.10
74809;DHT22;63338;39.544;2.596;2023-05-07T13:50:38;26.70;50.30
74809;DHT22;63338;39.544;2.596;2023-05-07T13:53:04;26.80;48.60
74809;DHT22;63338;39.544;2.596;2023-05-07T13:55:30;26.80;49.30
74809;DHT22;63338;39.544;2.596;2023-05-07T13:57:58;26.90;49.10
74809;DHT22;63338;39.544;2.596;2023-05-07T14:00:26;26.80;50.20
74809;DHT22;63338;39.544;2.596;2023-05-07T14:02:53;26.80;50.30
74809;DHT22;63338;39.544;2.596;2023-05-07T14:05:24;26.70;49.80
74809;DHT22;63338;39.544;2.596;2023-05-07T14:07:55;26.70;48.80
74809;DHT22;63338;39.544;2.596;2023-05-07T14:10:22;26.80;48.80
74809;DHT22;63338;39.544;2.596;2023-05-07T14:12:48;26.70;48.90
74809;DHT22;63338;39.544;2.596;2023-05-07T14:15:15;26.80;48.60
74809;DHT22;63338;39.544;2.596;2023-05-07T14:20:20;26.90;48.30
74809;DHT22;63338;39.544;2.596;2023-05-07T14:22:52;26.90;48.70
74809;DHT22;63338;39.544;2.596;2023-05-07T14:25:32;27.00;47.90
74809;DHT22;63338;39.544;2.596;2023-05-07T14:28:03;26.80;48.10
74809;DHT22;63338;39.544;2.596;2023-05-07T14:30:30;26.90;49.30
74809;DHT22;63338;39.544;2.596;2023-05-07T14:32:56;26.80;49.10
74809;DHT22;63338;39.544;2.596;2023-05-07T14:35:22;26.80;48.70
74809;DHT22;63338;39.544;2.596;2023-05-07T14:37:49;26.60;50.00
74809;DHT22;63338;39.544;2.596;2023-05-07T14:40:15;26.40;50.70
74809;DHT22;63338;39.544;2.596;2023-05-07T14:42:42;26.20;52.90
74809;DHT22;63338;39.544;2.596;2023-05-07T14:45:11;26.20;54.40
74809;DHT22;63338;39.544;2.596;2023-05-07T14:47:37;26.00;54.70
74809;DHT22;63338;39.544;2.596;2023-05-07T14:50:04;26.00;55.00
74809;DHT22;63338;39.544;2.596;2023-05-07T14:52:30;25.80;53.70
74809;DHT22;63338;39.544;2.596;2023-05-07T14:54:56;25.80;53.40
74809;DHT22;63338;39.544;2.596;2023-05-07T14:57:27;25.70;54.60
74809;DHT22;63338;39.544;2.596;2023-05-07T14:59:53;25.70;58.80
74809;DHT22;63338;39.544;2.596;2023-05-07T15:02:19;25.80;61.30
74809;DHT22;63338;39.544;2.596;2023-05-07T15:04:46;25.80;61.80
74809;DHT22;63338;39.544;2.596;2023-05-07T15:07:13;25.80;61.90
74809;DHT22;63338;39.544;2.596;2023-05-07T15:09:42;25.80;62.10
74809;DHT22;63338;39.544;2.596;2023-05-07T15:12:08;25.80;62.30
74809;DHT22;63338;39.544;2.596;2023-05-07T15:14:40;25.90;60.20
74809;DHT22;63338;39.544;2.596;2023-05-07T15:17:18;25.90;61.40
74809;DHT22;63338;39.544;2.596;2023-05-07T15:19:44;25.90;60.90
74809;DHT22;63338;39.544;2.596;2023-05-07T15:22:10;26.00;60.00
74809;DHT22;63338;39.544;2.596;2023-05-07T15:24:36;26.00;58.20
74809;DHT22;63338;39.544;2.596;2023-05-07T15:27:02;26.20;58.60
74809;DHT22;63338;39.544;2.596;2023-05-07T15:29:29;26.10;58.90
74809;DHT22;63338;39.544;2.596;2023-05-07T15:31:55;26.10;57.60
74809;DHT22;63338;39.544;2.596;2023-05-07T15:34:21;26.10;58.10
74809;DHT22;63338;39.544;2.596;2023-05-07T15:36:49;26.10;58.10
74809;DHT22;63338;39.544;2.596;2023-05-07T15:39:16;26.10;56.50
74809;DHT22;63338;39.544;2.596;2023-05-07T15:41:42;26.10;54.30
74809;DHT22;63338;39.544;2.596;2023-05-07T15:44:08;26.10;54.20
74809;DHT22;63338;39.544;2.596;2023-05-07T15:46:34;26.10;55.70
74809;DHT22;63338;39.544;2.596;2023-05-07T15:49:02;26.10;57.10
74809;DHT22;63338;39.544;2.596;2023-05-07T15:51:34;26.10;56.30
74809;DHT22;63338;39.544;2.596;2023-05-07T15:54:01;26.00;57.60